Terminal Aerodrome Forecast
Issued by NWS Green Bay, WI

Home | Current Version | Previous Version | Text Only | Print | Product List | Glossary Off
Versions: 1 2 3 4 5 6 7 8 9 10 11 12 13 14 15 16 17 18 19 20 21 22 23 24

000
FTUS43 KGRB 291723
TAFGRB
TAF
KGRB 291723Z 2918/3018 19005KT P6SM VCSH FEW030 SCT050 BKN150
     FM300000 17006KT P6SM FEW050 BKN140
     FM300500 21004KT 4SM BR SCT050 BKN140
     FM300900 20003KT 3SM BR BKN050
      TEMPO 3009/3013 1 1/2SM BR SCT003 BKN050
     FM301500 25006KT P6SM VCSH SCT030 OVC060=

USA.gov is the U.S. government's official web portal to all federal, state and local government web resources and services.